Time;durP1;ratioP1;P1;durP2;ratioP2;P2;SDS_P1;SDS_P2;PMS_P1;PMS_P2;Temp;Humidity;BMP_temperature;BMP_pressure;BME280_temperature;BME280_humidity;BME280_pressure;Samples;Min_cycle;Max_cycle;Signal;HPM_P1;HPM_P2
2021/04/27 00:02:23;;;;;;;5.03;2.00;;;8.10;50.60;;;;;;5073622;28;20700;-61
2021/04/27 00:04:50;;;;;;;3.60;2.03;;;8.10;50.60;;;;;;5073481;28;20200;-62
2021/04/27 00:07:17;;;;;;;5.10;2.07;;;8.00;50.80;;;;;;5073484;28;20228;-62
2021/04/27 00:09:43;;;;;;;3.57;1.80;;;8.00;51.00;;;;;;5073419;28;20250;-61
2021/04/27 00:12:11;;;;;;;2.00;1.60;;;7.90;51.20;;;;;;5073294;28;20581;-62
2021/04/27 00:14:38;;;;;;;4.67;2.50;;;7.90;51.30;;;;;;5072719;28;20208;-62
2021/04/27 00:17:05;;;;;;;2.80;1.90;;;7.90;51.20;;;;;;5072855;28;20239;-62
2021/04/27 00:19:32;;;;;;;3.17;1.90;;;7.90;51.30;;;;;;5072631;28;20701;-61
2021/04/27 00:21:59;;;;;;;3.50;2.07;;;7.80;51.50;;;;;;5072735;28;20205;-66
2021/04/27 00:24:27;;;;;;;3.83;2.13;;;7.80;51.70;;;;;;5072619;28;20209;-63
2021/04/27 00:26:53;;;;;;;4.80;2.50;;;7.80;52.00;;;;;;5072854;28;20259;-63
2021/04/27 00:29:19;;;;;;;5.80;2.40;;;7.80;51.90;;;;;;5072561;28;20220;-62
2021/04/27 00:31:46;;;;;;;3.90;2.13;;;7.80;52.20;;;;;;5072812;28;20862;-62
2021/04/27 00:34:12;;;;;;;3.50;2.23;;;7.70;52.20;;;;;;5072290;28;20738;-61
2021/04/27 00:36:38;;;;;;;3.33;2.10;;;7.70;52.40;;;;;;5072588;28;20233;-61
2021/04/27 00:39:06;;;;;;;6.03;2.10;;;7.70;52.40;;;;;;5072387;28;20209;-61
2021/04/27 00:41:32;;;;;;;2.67;2.03;;;7.50;52.70;;;;;;5072970;28;20211;-61
2021/04/27 00:43:58;;;;;;;5.97;1.90;;;7.40;53.20;;;;;;5072355;28;20208;-62
2021/04/27 00:46:24;;;;;;;3.93;2.20;;;7.40;53.30;;;;;;5071604;28;20716;-61
2021/04/27 00:48:50;;;;;;;5.97;2.27;;;7.30;53.50;;;;;;5072223;28;20684;-61
2021/04/27 00:51:17;;;;;;;3.80;2.33;;;7.20;54.00;;;;;;5072288;28;20215;-62
2021/04/27 00:53:44;;;;;;;5.20;2.33;;;7.00;54.30;;;;;;5071959;28;20212;-62
2021/04/27 00:56:12;;;;;;;2.80;1.90;;;7.00;54.60;;;;;;5071997;28;20233;-60
2021/04/27 00:58:38;;;;;;;3.83;1.73;;;6.90;54.90;;;;;;5071669;28;20208;-60
2021/04/27 01:01:05;;;;;;;2.70;1.90;;;6.90;55.00;;;;;;5072211;28;20232;-59
2021/04/27 01:03:31;;;;;;;4.97;1.77;;;6.90;55.10;;;;;;5071857;28;20205;-60
2021/04/27 01:05:57;;;;;;;3.97;2.20;;;6.80;55.40;;;;;;5071886;28;20225;-61
2021/04/27 01:08:29;;;;;;;4.37;2.13;;;6.80;55.50;;;;;;5071850;28;20204;-62
2021/04/27 01:11:03;;;;;;;5.70;2.63;;;6.90;55.40;;;;;;5071865;28;20201;-61
2021/04/27 01:13:36;;;;;;;3.43;2.17;;;6.90;55.40;;;;;;5071710;28;20688;-62
2021/04/27 01:16:03;;;;;;;4.20;2.07;;;6.90;55.40;;;;;;5071660;28;20229;-59
2021/04/27 01:18:32;;;;;;;3.07;2.00;;;6.80;55.80;;;;;;5071943;28;20208;-60
2021/04/27 01:21:01;;;;;;;4.63;2.43;;;6.70;56.20;;;;;;5072114;28;20209;-60
2021/04/27 01:23:50;;;;;;;2.77;2.00;;;6.60;56.20;;;;;;5072107;28;20235;-61
2021/04/27 01:26:29;;;;;;;3.50;2.10;;;6.60;56.30;;;;;;5071953;28;20224;-60
2021/04/27 01:28:56;;;;;;;9.77;2.37;;;6.70;56.20;;;;;;5072103;28;20205;-59
2021/04/27 01:31:23;;;;;;;3.33;2.30;;;6.70;56.10;;;;;;5071845;28;20691;-59
2021/04/27 01:33:50;;;;;;;3.77;1.90;;;6.80;56.20;;;;;;5071714;28;20212;-60
2021/04/27 01:36:17;;;;;;;5.40;1.80;;;6.80;56.10;;;;;;5071551;28;20229;-60
2021/04/27 01:38:44;;;;;;;5.70;2.17;;;6.80;56.10;;;;;;5071421;28;20208;-60
2021/04/27 01:41:10;;;;;;;3.43;2.20;;;6.80;56.10;;;;;;5072126;28;20548;-60
2021/04/27 01:43:38;;;;;;;3.43;2.03;;;6.80;56.40;;;;;;5072136;28;20302;-61
2021/04/27 01:46:06;;;;;;;3.43;1.90;;;6.80;56.20;;;;;;5071915;28;20259;-60
2021/04/27 01:48:33;;;;;;;5.50;2.40;;;6.80;56.50;;;;;;5071631;28;20349;-61
2021/04/27 01:51:00;;;;;;;3.97;2.03;;;6.70;56.70;;;;;;5071644;28;20204;-61
2021/04/27 01:53:27;;;;;;;2.50;1.80;;;6.70;56.70;;;;;;5071456;28;20688;-61
2021/04/27 01:55:53;;;;;;;5.93;2.20;;;6.60;57.10;;;;;;5071514;28;20236;-61
2021/04/27 01:58:20;;;;;;;3.40;2.27;;;6.60;57.40;;;;;;5070501;28;20208;-60
2021/04/27 02:00:47;;;;;;;4.03;2.37;;;6.50;57.30;;;;;;5071375;28;20205;-61
2021/04/27 02:03:13;;;;;;;3.53;2.10;;;6.60;57.10;;;;;;5071433;28;20212;-61
2021/04/27 02:05:40;;;;;;;6.13;2.30;;;6.70;57.20;;;;;;5071382;28;20286;-61
2021/04/27 02:08:06;;;;;;;7.03;3.13;;;6.60;57.30;;;;;;5071084;28;20216;-60
2021/04/27 02:10:33;;;;;;;4.63;2.90;;;6.60;57.60;;;;;;5071864;28;20205;-61
2021/04/27 02:13:14;;;;;;;2.63;2.10;;;6.40;57.70;;;;;;5071700;28;20209;-61
2021/04/27 02:15:41;;;;;;;4.20;2.40;;;6.40;57.90;;;;;;5071525;28;20256;-60
2021/04/27 02:18:16;;;;;;;2.93;1.90;;;6.40;57.90;;;;;;5071459;28;20212;-61
2021/04/27 02:20:43;;;;;;;5.13;2.23;;;6.50;57.80;;;;;;5071555;28;20204;-60
2021/04/27 02:23:11;;;;;;;3.97;2.40;;;6.50;57.70;;;;;;5071500;28;20712;-60
2021/04/27 02:25:39;;;;;;;3.20;2.13;;;6.50;57.90;;;;;;5071084;28;20232;-60
2021/04/27 02:28:05;;;;;;;4.47;2.10;;;6.60;58.00;;;;;;5071078;28;20589;-61
2021/04/27 02:30:32;;;;;;;2.60;2.07;;;6.50;58.20;;;;;;5071100;28;20628;-61
2021/04/27 02:32:59;;;;;;;3.20;2.03;;;6.50;58.20;;;;;;5071039;28;20240;-60
2021/04/27 02:35:26;;;;;;;4.00;2.00;;;6.60;58.80;;;;;;5070970;28;20252;-60
2021/04/27 02:37:53;;;;;;;2.83;2.00;;;6.60;58.20;;;;;;5071078;28;20209;-61
2021/04/27 02:40:26;;;;;;;4.97;2.37;;;6.70;58.30;;;;;;5071574;28;20200;-61
2021/04/27 02:42:57;;;;;;;2.50;2.10;;;6.60;58.40;;;;;;5071181;28;20669;-60
2021/04/27 02:45:31;;;;;;;3.67;2.43;;;6.60;58.40;;;;;;5070957;28;20227;-61
2021/04/27 02:48:05;;;;;;;3.17;2.00;;;6.60;58.50;;;;;;5070900;28;20212;-61
2021/04/27 02:50:33;;;;;;;3.23;2.20;;;6.60;58.40;;;;;;5070969;28;20269;-60
2021/04/27 02:52:59;;;;;;;5.73;2.50;;;6.70;58.40;;;;;;5070526;28;20234;-60
2021/04/27 02:55:26;;;;;;;7.67;2.60;;;6.70;58.20;;;;;;5070233;28;20731;-61
2021/04/27 02:57:52;;;;;;;5.03;2.50;;;6.70;58.20;;;;;;5070485;28;20262;-61
2021/04/27 03:00:19;;;;;;;7.47;2.60;;;6.70;58.40;;;;;;5070933;28;20695;-60
2021/04/27 03:02:45;;;;;;;4.07;2.20;;;6.70;58.30;;;;;;5071126;28;20200;-60
2021/04/27 03:05:12;;;;;;;4.17;2.37;;;6.70;58.40;;;;;;5070346;28;20679;-61
2021/04/27 03:07:40;;;;;;;3.23;2.30;;;6.70;58.60;;;;;;5070550;28;20205;-59
2021/04/27 03:10:08;;;;;;;5.17;2.10;;;6.60;58.70;;;;;;5073384;28;20646;-60
2021/04/27 03:12:34;;;;;;;3.97;2.73;;;6.60;58.80;;;;;;5074192;28;20668;-60
2021/04/27 03:15:01;;;;;;;5.17;2.77;;;6.60;59.00;;;;;;5073621;28;20205;-61
2021/04/27 03:17:27;;;;;;;4.90;2.83;;;6.60;58.90;;;;;;5074278;28;20720;-60
2021/04/27 03:19:54;;;;;;;5.63;3.17;;;6.60;59.00;;;;;;5073748;28;20205;-60
2021/04/27 03:22:20;;;;;;;5.93;2.57;;;6.60;58.80;;;;;;5073656;28;20208;-60
2021/04/27 03:24:47;;;;;;;3.33;2.20;;;6.60;58.80;;;;;;5073380;28;20205;-60
2021/04/27 03:27:13;;;;;;;4.47;2.60;;;6.70;58.90;;;;;;5073399;28;20590;-60
2021/04/27 03:29:39;;;;;;;4.63;2.50;;;6.70;59.00;;;;;;5073468;28;20205;-60
2021/04/27 03:32:06;;;;;;;5.93;2.33;;;6.70;59.70;;;;;;5073595;28;20208;-61
2021/04/27 03:34:32;;;;;;;6.47;2.20;;;6.70;60.40;;;;;;5073823;28;20209;-61
2021/04/27 03:36:58;;;;;;;5.93;2.13;;;6.60;61.00;;;;;;5073518;28;20228;-60
2021/04/27 03:39:24;;;;;;;4.03;2.77;;;6.60;61.10;;;;;;5073593;28;20672;-60
2021/04/27 03:41:51;;;;;;;6.73;3.97;;;6.50;61.30;;;;;;5073746;28;20205;-60
2021/04/27 03:44:17;;;;;;;4.83;2.43;;;6.50;61.90;;;;;;5073503;28;20205;-60
2021/04/27 03:46:44;;;;;;;3.47;2.23;;;6.40;62.60;;;;;;5073484;28;20232;-60
2021/04/27 03:49:10;;;;;;;6.07;2.60;;;6.40;62.30;;;;;;5073291;28;20212;-60
2021/04/27 03:51:37;;;;;;;3.87;2.63;;;6.40;62.00;;;;;;5073932;28;20207;-60
2021/04/27 03:54:04;;;;;;;4.30;2.80;;;6.30;61.80;;;;;;5073473;28;20216;-60
2021/04/27 03:56:30;;;;;;;6.27;3.60;;;6.40;61.90;;;;;;5073688;28;20236;-60
2021/04/27 03:58:57;;;;;;;7.13;2.60;;;6.30;61.90;;;;;;5073624;28;20274;-60
2021/04/27 04:01:23;;;;;;;8.23;4.20;;;6.30;62.30;;;;;;5073363;28;20209;-60
2021/04/27 04:03:50;;;;;;;8.47;4.00;;;6.20;62.60;;;;;;5072829;28;20205;-60
2021/04/27 04:06:16;;;;;;;15.53;6.80;;;6.30;62.80;;;;;;5072718;28;20228;-60
2021/04/27 04:08:42;;;;;;;8.00;3.00;;;6.30;63.50;;;;;;5072587;28;20208;-59
2021/04/27 04:11:09;;;;;;;4.97;3.00;;;6.20;63.70;;;;;;5072837;28;20209;-60
2021/04/27 04:13:35;;;;;;;6.77;4.23;;;6.20;64.00;;;;;;5072872;28;20205;-60
2021/04/27 04:16:03;;;;;;;5.90;3.37;;;6.20;63.90;;;;;;5072692;28;20290;-60
2021/04/27 04:18:29;;;;;;;4.97;2.57;;;6.20;63.70;;;;;;5072794;28;20204;-60
2021/04/27 04:20:55;;;;;;;10.07;4.37;;;6.20;63.50;;;;;;5072047;28;20200;-60
2021/04/27 04:23:21;;;;;;;6.53;3.37;;;6.20;63.40;;;;;;5072606;28;20554;-60
2021/04/27 04:25:48;;;;;;;9.13;4.27;;;6.20;63.50;;;;;;5072951;28;20225;-60
2021/04/27 04:28:14;;;;;;;9.00;3.43;;;6.30;63.70;;;;;;5072386;28;20691;-60
2021/04/27 04:30:41;;;;;;;28.20;13.83;;;6.30;63.90;;;;;;5072702;28;20213;-60
2021/04/27 04:33:08;;;;;;;5.87;3.10;;;6.30;64.40;;;;;;5072520;28;20216;-60
2021/04/27 04:35:34;;;;;;;12.90;5.93;;;6.40;64.50;;;;;;5072324;28;20225;-60
2021/04/27 04:38:01;;;;;;;6.40;3.27;;;6.40;64.20;;;;;;5071984;28;20250;-60
2021/04/27 04:40:27;;;;;;;8.73;4.50;;;6.50;64.40;;;;;;5072159;28;20619;-61
2021/04/27 04:42:54;;;;;;;13.57;8.10;;;6.50;64.50;;;;;;5072072;28;20205;-60
2021/04/27 04:45:20;;;;;;;10.87;3.30;;;6.60;64.40;;;;;;5072055;28;20247;-61
2021/04/27 04:47:47;;;;;;;9.83;5.90;;;6.70;64.40;;;;;;5072044;28;20216;-60
2021/04/27 04:50:16;;;;;;;8.80;5.07;;;6.90;64.20;;;;;;5072210;28;20677;-60
2021/04/27 04:52:42;;;;;;;9.00;4.00;;;7.00;63.70;;;;;;5072165;28;20266;-60
2021/04/27 04:55:10;;;;;;;7.83;3.23;;;7.20;63.40;;;;;;5071860;28;20200;-60
2021/04/27 04:57:37;;;;;;;7.00;4.63;;;7.30;62.70;;;;;;5071163;28;20212;-60
2021/04/27 05:00:05;;;;;;;7.00;3.70;;;7.50;62.10;;;;;;5071772;28;20235;-60
2021/04/27 05:02:31;;;;;;;7.90;3.43;;;7.60;61.60;;;;;;5072558;28;20205;-61
2021/04/27 05:04:57;;;;;;;6.37;3.13;;;7.70;61.70;;;;;;5073341;28;20205;-61
2021/04/27 05:07:26;;;;;;;9.63;3.63;;;7.80;61.70;;;;;;5073634;28;20262;-61
2021/04/27 05:09:52;;;;;;;6.50;3.70;;;8.00;61.70;;;;;;5073416;28;20714;-61
2021/04/27 05:12:19;;;;;;;7.33;3.50;;;8.10;61.50;;;;;;5073707;28;20541;-61
2021/04/27 05:14:45;;;;;;;6.43;3.40;;;8.20;60.80;;;;;;5073892;28;20227;-60
2021/04/27 05:17:15;;;;;;;10.43;3.37;;;8.20;60.60;;;;;;5071783;28;20237;-60
2021/04/27 05:19:41;;;;;;;7.73;3.50;;;8.20;60.60;;;;;;5071377;28;20212;-61
2021/04/27 05:22:09;;;;;;;9.00;3.70;;;8.20;60.00;;;;;;5071407;28;20209;-60
2021/04/27 05:24:37;;;;;;;8.67;3.60;;;8.30;60.20;;;;;;5071138;28;20204;-60
2021/04/27 05:27:04;;;;;;;5.53;2.73;;;8.40;59.90;;;;;;5071443;28;20592;-61
2021/04/27 05:29:30;;;;;;;7.97;2.70;;;8.60;59.30;;;;;;5071153;28;20209;-61
2021/04/27 05:31:56;;;;;;;6.50;2.97;;;8.70;58.80;;;;;;5071060;28;20204;-60
2021/04/27 05:34:23;;;;;;;9.63;3.00;;;8.90;58.10;;;;;;5071315;28;20710;-61
2021/04/27 05:36:49;;;;;;;8.13;3.30;;;9.10;57.90;;;;;;5071327;28;20229;-61
2021/04/27 05:39:15;;;;;;;5.97;3.20;;;9.40;57.40;;;;;;5071114;28;20211;-61
2021/04/27 05:41:42;;;;;;;5.83;2.97;;;9.90;56.90;;;;;;5071302;28;20205;-60
2021/04/27 05:44:09;;;;;;;5.90;2.73;;;11.20;54.50;;;;;;5070962;28;20232;-61
2021/04/27 05:46:36;;;;;;;8.40;3.23;;;12.90;51.20;;;;;;5071181;28;20224;-61
2021/04/27 05:49:02;;;;;;;6.63;2.90;;;14.40;48.90;;;;;;5071180;28;20205;-61
2021/04/27 05:51:29;;;;;;;4.90;3.37;;;16.00;46.70;;;;;;5071585;28;20217;-62
2021/04/27 05:53:55;;;;;;;10.63;3.23;;;17.50;44.20;;;;;;5070865;28;20216;-62
2021/04/27 05:56:21;;;;;;;8.77;4.47;;;18.60;41.80;;;;;;5071030;28;20608;-61
2021/04/27 05:58:48;;;;;;;11.47;3.17;;;19.20;40.80;;;;;;5071101;28;20209;-61
2021/04/27 06:01:15;;;;;;;8.97;3.30;;;19.60;39.60;;;;;;5071751;28;20204;-61
2021/04/27 06:03:41;;;;;;;15.05;3.47;;;20.20;38.70;;;;;;5071899;28;20201;-62
2021/04/27 06:06:07;;;;;;;9.00;3.88;;;20.90;37.70;;;;;;5072244;28;20630;-62
2021/04/27 06:08:34;;;;;;;5.57;3.22;;;21.50;37.20;;;;;;5073482;28;20216;-62
2021/04/27 06:11:00;;;;;;;7.22;3.35;;;21.90;36.00;;;;;;5076848;28;20232;-60
2021/04/27 06:13:26;;;;;;;8.00;3.42;;;21.80;35.30;;;;;;5074934;28;20201;-61
2021/04/27 06:15:54;;;;;;;7.38;2.80;;;21.80;35.30;;;;;;5071484;28;20236;-61
2021/04/27 06:18:20;;;;;;;6.70;2.92;;;21.80;34.80;;;;;;5073236;28;20204;-62
2021/04/27 06:20:46;;;;;;;9.85;3.25;;;21.50;35.00;;;;;;5072657;28;20266;-61
2021/04/27 06:23:12;;;;;;;6.07;2.90;;;21.50;35.40;;;;;;5071587;28;20209;-61
2021/04/27 06:25:38;;;;;;;4.55;2.80;;;21.70;35.10;;;;;;5072195;28;20220;-62
2021/04/27 06:28:05;;;;;;;8.90;3.40;;;21.30;35.40;;;;;;5072050;28;20604;-61
2021/04/27 06:30:31;;;;;;;6.30;3.10;;;21.00;36.60;;;;;;5071961;28;20212;-62
2021/04/27 06:32:58;;;;;;;8.15;3.20;;;21.50;36.20;;;;;;5071948;28;20209;-61
2021/04/27 06:35:25;;;;;;;6.55;2.65;;;22.30;35.30;;;;;;5071554;28;20578;-61
2021/04/27 06:37:52;;;;;;;8.27;3.30;;;23.10;34.70;;;;;;5071626;28;20213;-63
2021/04/27 06:40:19;;;;;;;6.55;3.13;;;23.80;33.60;;;;;;5071579;28;20300;-62
2021/04/27 06:42:45;;;;;;;5.55;3.20;;;24.50;33.40;;;;;;5071655;28;20204;-62
2021/04/27 06:45:13;;;;;;;6.63;3.17;;;25.30;32.70;;;;;;5074862;28;20215;-62
2021/04/27 06:47:39;;;;;;;5.28;3.00;;;25.80;32.30;;;;;;5075239;28;20208;-62
2021/04/27 06:50:09;;;;;;;5.05;3.05;;;26.10;31.80;;;;;;5075360;28;20204;-62
2021/04/27 06:52:35;;;;;;;4.85;3.05;;;26.70;31.10;;;;;;5075397;28;20565;-62
2021/04/27 06:55:02;;;;;;;10.23;3.50;;;26.90;31.10;;;;;;5074839;28;20677;-62
2021/04/27 06:57:28;;;;;;;4.90;3.08;;;27.00;30.70;;;;;;5075524;28;20237;-61
2021/04/27 06:59:55;;;;;;;11.20;3.80;;;27.80;30.30;;;;;;5075288;28;20209;-62
2021/04/27 07:02:21;;;;;;;5.05;3.30;;;28.60;29.30;;;;;;5076048;28;20201;-62
2021/04/27 07:04:47;;;;;;;5.80;3.65;;;29.00;28.70;;;;;;5075918;28;20573;-62
2021/04/27 07:07:15;;;;;;;4.57;3.60;;;28.90;28.50;;;;;;5075554;28;20709;-63
2021/04/27 07:09:41;;;;;;;7.90;3.40;;;28.70;28.80;;;;;;5075705;28;20205;-63
2021/04/27 07:12:08;;;;;;;5.63;3.40;;;28.60;28.70;;;;;;5073801;28;20205;-66
2021/04/27 07:14:34;;;;;;;4.63;3.53;;;28.60;28.60;;;;;;5075355;28;20216;-60
2021/04/27 07:17:00;;;;;;;6.10;3.50;;;28.60;29.30;;;;;;5076480;28;20770;-61
2021/04/27 07:19:27;;;;;;;7.40;3.38;;;29.00;28.60;;;;;;5073943;28;20204;-62
2021/04/27 07:21:53;;;;;;;3.45;3.10;;;29.40;27.90;;;;;;5073743;28;20215;-62
2021/04/27 07:24:21;;;;;;;5.00;3.45;;;29.30;27.90;;;;;;5074129;28;20286;-63
2021/04/27 07:26:47;;;;;;;6.05;3.55;;;29.20;27.90;;;;;;5075021;28;20239;-63
2021/04/27 07:29:14;;;;;;;8.90;3.58;;;29.40;27.90;;;;;;5074485;28;20570;-63
2021/04/27 07:31:41;;;;;;;5.60;3.40;;;29.80;27.60;;;;;;5075229;28;20227;-63
2021/04/27 07:34:08;;;;;;;4.72;3.38;;;30.20;27.30;;;;;;5074519;28;20676;-63
2021/04/27 07:36:35;;;;;;;5.78;3.88;;;30.20;27.30;;;;;;5074491;28;20740;-63
2021/04/27 07:39:01;;;;;;;4.28;3.53;;;29.60;27.60;;;;;;5074628;28;20208;-63
2021/04/27 07:41:28;;;;;;;5.20;3.65;;;29.80;27.60;;;;;;5074658;28;20227;-63
2021/04/27 07:43:55;;;;;;;6.30;3.55;;;29.90;27.50;;;;;;5073989;28;20213;-65
2021/04/27 07:46:21;;;;;;;6.13;3.47;;;30.30;27.50;;;;;;5073386;28;20236;-64
2021/04/27 07:48:47;;;;;;;7.15;3.85;;;30.70;27.00;;;;;;5073040;28;20207;-64
2021/04/27 07:51:14;;;;;;;4.65;3.63;;;31.20;27.10;;;;;;5073418;28;20204;-64
2021/04/27 07:53:40;;;;;;;4.45;3.35;;;31.50;26.50;;;;;;5073101;28;20202;-67
2021/04/27 07:56:07;;;;;;;4.00;3.42;;;30.90;26.70;;;;;;5073226;28;20605;-67
2021/04/27 07:58:34;;;;;;;4.15;3.70;;;30.50;26.90;;;;;;5073138;28;20258;-64
2021/04/27 08:01:00;;;;;;;5.63;3.60;;;30.30;26.90;;;;;;5073494;28;20213;-64
2021/04/27 08:03:27;;;;;;;5.60;3.55;;;30.20;27.10;;;;;;5073190;28;20224;-64
2021/04/27 08:05:53;;;;;;;4.18;3.78;;;30.10;27.20;;;;;;5073166;28;20221;-64
2021/04/27 08:08:20;;;;;;;6.70;3.80;;;30.40;27.40;;;;;;5072898;28;20213;-66
2021/04/27 08:10:46;;;;;;;7.00;6.03;;;30.90;26.80;;;;;;5067309;28;20209;-62
2021/04/27 08:13:12;;;;;;;5.55;3.90;;;31.30;26.50;;;;;;5052165;28;20695;-62
2021/04/27 08:15:40;;;;;;;5.30;3.70;;;31.50;26.50;;;;;;5052110;28;20244;-66
2021/04/27 08:18:07;;;;;;;5.53;3.58;;;31.80;26.30;;;;;;5052386;28;20208;-64
2021/04/27 08:20:34;;;;;;;5.15;3.83;;;31.90;26.20;;;;;;5052671;28;20206;-65
2021/04/27 08:23:01;;;;;;;5.68;4.10;;;31.20;26.50;;;;;;5052162;28;20205;-66
2021/04/27 08:25:28;;;;;;;5.53;4.10;;;30.00;27.40;;;;;;5052428;28;20240;-66
2021/04/27 08:27:54;;;;;;;4.57;3.95;;;28.10;28.60;;;;;;5052421;28;20215;-66
2021/04/27 08:30:23;;;;;;;6.85;3.80;;;25.40;30.40;;;;;;5052414;28;20209;-64
2021/04/27 08:32:52;;;;;;;7.05;3.90;;;22.80;32.80;;;;;;5052466;28;20209;-64
2021/04/27 08:35:18;;;;;;;5.47;4.07;;;21.00;34.80;;;;;;5051960;28;20812;-65
2021/04/27 08:37:45;;;;;;;8.30;4.38;;;19.90;36.10;;;;;;5052858;28;20494;-64
2021/04/27 08:40:13;;;;;;;6.28;4.07;;;19.00;37.90;;;;;;5052519;28;20206;-64
2021/04/27 08:42:39;;;;;;;5.65;4.22;;;18.00;39.20;;;;;;5052335;28;20228;-64
2021/04/27 08:45:09;;;;;;;5.43;4.13;;;17.30;40.50;;;;;;5052051;28;20221;-65
2021/04/27 08:47:36;;;;;;;5.93;4.30;;;16.70;41.30;;;;;;5052466;28;20277;-64
2021/04/27 08:50:05;;;;;;;8.17;4.53;;;16.40;41.60;;;;;;5051989;28;20213;-61
2021/04/27 08:52:32;;;;;;;6.73;4.73;;;16.30;42.30;;;;;;5052055;28;20227;-62
2021/04/27 08:54:58;;;;;;;8.07;4.63;;;16.20;42.40;;;;;;5051937;28;20247;-62
2021/04/27 08:57:25;;;;;;;5.63;4.67;;;16.40;42.00;;;;;;5052356;28;20229;-63
2021/04/27 08:59:51;;;;;;;8.87;4.70;;;16.60;41.70;;;;;;5051812;28;20202;-62
2021/04/27 09:02:25;;;;;;;6.27;4.10;;;16.70;41.60;;;;;;5052055;28;20266;-62
2021/04/27 09:04:52;;;;;;;9.60;4.40;;;16.60;42.00;;;;;;5052083;28;20224;-62
2021/04/27 09:07:21;;;;;;;8.27;4.43;;;16.40;42.10;;;;;;5051442;28;20232;-63
2021/04/27 09:09:49;;;;;;;5.90;4.40;;;16.10;42.60;;;;;;5052070;28;20574;-62
2021/04/27 09:12:22;;;;;;;6.03;5.03;;;16.10;42.80;;;;;;5051942;28;20216;-62
2021/04/27 09:14:49;;;;;;;6.80;4.50;;;16.20;43.00;;;;;;5051706;28;20275;-62
2021/04/27 09:17:15;;;;;;;5.77;4.87;;;16.20;43.10;;;;;;5106595;23;20755;-64
2021/04/27 09:19:44;;;;;;;5.93;4.33;;;16.20;43.40;;;;;;5111834;28;20402;-63
2021/04/27 09:22:14;;;;;;;9.73;4.60;;;16.10;43.20;;;;;;5111883;28;20203;-64
2021/04/27 09:24:44;;;;;;;7.87;4.00;;;16.20;43.50;;;;;;5111588;28;20587;-65
2021/04/27 09:27:13;;;;;;;7.97;4.90;;;16.40;43.60;;;;;;5096613;28;20274;-63
2021/04/27 09:29:42;;;;;;;6.87;4.30;;;16.40;43.70;;;;;;5091342;28;20204;-63
2021/04/27 09:32:09;;;;;;;6.33;4.37;;;16.30;43.80;;;;;;5091527;28;20211;-64
2021/04/27 09:34:37;;;;;;;6.77;4.67;;;16.00;44.30;;;;;;5091440;28;20204;-63
2021/04/27 09:37:05;;;;;;;8.40;5.17;;;15.90;44.20;;;;;;5091393;28;20231;-64
2021/04/27 09:39:34;;;;;;;6.60;4.27;;;16.10;44.40;;;;;;5091399;28;20208;-63
2021/04/27 09:42:04;;;;;;;8.07;4.77;;;16.20;44.20;;;;;;5091278;28;20268;-63
2021/04/27 09:44:32;;;;;;;6.90;4.57;;;16.50;43.80;;;;;;5091737;28;20208;-65
2021/04/27 09:47:17;;;;;;;6.30;4.60;;;17.00;43.70;;;;;;5091216;28;20229;-64
2021/04/27 09:49:56;;;;;;;10.60;5.37;;;17.20;43.10;;;;;;5091253;28;20234;-64
2021/04/27 09:52:22;;;;;;;8.57;5.27;;;17.30;42.70;;;;;;5091256;28;20722;-63
2021/04/27 09:55:09;;;;;;;9.03;5.23;;;17.40;42.70;;;;;;5091124;28;20216;-64
2021/04/27 09:57:39;;;;;;;7.97;5.10;;;17.70;42.60;;;;;;5091213;28;20228;-63
2021/04/27 10:00:31;;;;;;;6.10;5.20;;;17.80;42.10;;;;;;5087452;28;20443;-63
2021/04/27 10:02:59;;;;;;;9.70;6.17;;;17.80;41.90;;;;;;5090441;28;20200;-61
2021/04/27 10:05:26;;;;;;;10.17;6.40;;;17.70;42.10;;;;;;5090537;28;20220;-61
2021/04/27 10:07:54;;;;;;;9.90;5.27;;;17.80;42.20;;;;;;5090941;28;20530;-60
2021/04/27 10:10:20;;;;;;;7.80;5.20;;;17.90;41.90;;;;;;5090570;28;20211;-63
2021/04/27 10:12:48;;;;;;;8.40;4.90;;;18.00;41.70;;;;;;5085482;28;20205;-60
2021/04/27 10:15:15;;;;;;;7.43;5.63;;;18.00;42.10;;;;;;5070340;28;20209;-61
2021/04/27 10:17:42;;;;;;;8.40;5.03;;;17.80;42.00;;;;;;5070368;28;20285;-62
2021/04/27 10:20:12;;;;;;;7.77;5.77;;;17.50;42.30;;;;;;5074320;28;20201;-62
2021/04/27 10:22:41;;;;;;;6.43;4.87;;;17.50;43.00;;;;;;5073212;28;20687;-61
2021/04/27 10:25:11;;;;;;;9.77;5.50;;;17.60;43.10;;;;;;5074295;28;20205;-62
2021/04/27 10:27:38;;;;;;;8.33;5.10;;;17.80;42.80;;;;;;5074345;28;20240;-61
2021/04/27 10:30:28;;;;;;;11.23;5.83;;;18.00;42.50;;;;;;5074038;28;20201;-63
2021/04/27 10:33:19;;;;;;;10.73;5.33;;;18.20;42.40;;;;;;5074368;28;20258;-64
2021/04/27 10:36:01;;;;;;;10.13;6.63;;;18.50;41.70;;;;;;5074234;28;20581;-62
2021/04/27 10:38:42;;;;;;;6.80;5.17;;;18.50;42.50;;;;;;5074531;28;20185;-63
2021/04/27 10:41:12;;;;;;;6.23;4.97;;;18.50;40.10;;;;;;5074459;28;20223;-62
2021/04/27 10:43:43;;;;;;;9.30;5.70;;;18.20;39.50;;;;;;5074058;28;20204;-63
2021/04/27 10:46:51;;;;;;;7.00;4.97;;;18.00;39.70;;;;;;5074065;28;20228;-65
2021/04/27 10:49:23;;;;;;;8.30;5.63;;;17.70;39.50;;;;;;5073942;28;20247;-66
2021/04/27 10:51:51;;;;;;;7.90;4.80;;;17.50;39.80;;;;;;5074348;28;20211;-65
2021/04/27 10:54:22;;;;;;;7.40;5.00;;;17.40;39.80;;;;;;5071545;28;20197;-65
2021/04/27 10:56:50;;;;;;;9.73;5.40;;;17.40;38.80;;;;;;5073487;28;20228;-66
2021/04/27 10:59:18;;;;;;;9.00;5.27;;;17.30;39.50;;;;;;5073742;28;20212;-64
2021/04/27 11:01:46;;;;;;;6.57;5.43;;;17.20;39.20;;;;;;5074436;28;20309;-61
2021/04/27 11:04:33;;;;;;;10.20;5.63;;;17.20;39.30;;;;;;5074206;28;20632;-65
2021/04/27 11:07:29;;;;;;;7.00;5.37;;;17.30;39.50;;;;;;5074158;28;20244;-64
2021/04/27 11:10:31;;;;;;;8.20;5.73;;;17.60;39.40;;;;;;5073882;28;20494;-64
2021/04/27 11:13:08;;;;;;;6.13;5.00;;;17.70;39.90;;;;;;5071391;28;20208;-63
2021/04/27 11:15:35;;;;;;;7.00;5.20;;;17.90;39.40;;;;;;5073413;28;20290;-63
2021/04/27 11:18:16;;;;;;;9.40;5.67;;;17.90;39.50;;;;;;5071965;28;20236;-64
2021/04/27 11:20:49;;;;;;;14.57;10.30;;;17.70;40.40;;;;;;5073871;28;20207;-61
2021/04/27 11:23:46;;;;;;;7.43;5.20;;;17.50;40.20;;;;;;5073520;28;20668;-64
2021/04/27 11:26:45;;;;;;;11.17;5.50;;;17.60;40.90;;;;;;5061039;28;20304;-62
2021/04/27 11:29:17;;;;;;;6.83;5.90;;;17.80;40.50;;;;;;5019979;28;20209;-62
2021/04/27 11:32:06;;;;;;;8.67;6.00;;;17.90;40.10;;;;;;5073325;28;20625;-61
2021/04/27 11:35:04;;;;;;;9.03;6.03;;;18.10;40.20;;;;;;5073343;28;20231;-62
2021/04/27 11:37:34;;;;;;;9.23;5.70;;;18.40;40.00;;;;;;5073438;28;20236;-59
2021/04/27 11:40:27;;;;;;;9.30;5.63;;;18.60;39.90;;;;;;5073745;28;20209;-67
2021/04/27 11:42:56;;;;;;;6.82;5.65;;;18.70;39.60;;;;;;5073747;28;20205;-66
2021/04/27 11:45:23;;;;;;;8.77;6.05;;;18.60;39.60;;;;;;5073739;28;20687;-66
2021/04/27 11:47:50;;;;;;;7.93;5.45;;;18.80;38.90;;;;;;5073409;28;20636;-64
2021/04/27 11:50:19;;;;;;;8.25;5.30;;;19.00;38.90;;;;;;5073443;28;20254;-66
2021/04/27 11:52:54;;;;;;;7.53;6.20;;;19.10;38.70;;;;;;5073714;28;20214;-65
2021/04/27 11:55:26;;;;;;;9.15;5.63;;;19.10;38.70;;;;;;5073619;28;20219;-66
2021/04/27 11:57:55;;;;;;;8.32;5.95;;;19.10;38.80;;;;;;5073260;28;20263;-64
2021/04/27 12:00:28;;;;;;;7.55;5.43;;;19.10;39.70;;;;;;5073394;28;20209;-64
2021/04/27 12:02:55;;;;;;;7.70;5.85;;;18.90;39.70;;;;;;5073235;28;20204;-65
2021/04/27 12:05:22;;;;;;;7.53;5.53;;;19.00;39.40;;;;;;5072480;28;20209;-65
2021/04/27 12:07:49;;;;;;;7.45;5.38;;;19.10;39.30;;;;;;5072446;28;20209;-65
2021/04/27 12:10:15;;;;;;;7.65;5.43;;;19.20;39.10;;;;;;5072988;28;20212;-65
2021/04/27 12:12:46;;;;;;;5.40;4.65;;;19.20;39.40;;;;;;5072860;28;20266;-65
2021/04/27 12:15:12;;;;;;;8.35;5.72;;;19.00;40.10;;;;;;5072817;28;20201;-65
2021/04/27 12:17:38;;;;;;;6.80;5.47;;;18.90;39.10;;;;;;5072474;28;20228;-65
2021/04/27 12:20:11;;;;;;;6.50;5.53;;;18.80;39.40;;;;;;5072694;28;20205;-65
2021/04/27 12:22:47;;;;;;;6.37;5.07;;;18.70;39.20;;;;;;5072821;28;20241;-64
2021/04/27 12:25:23;;;;;;;10.07;5.47;;;18.80;39.70;;;;;;5072609;28;20204;-65
2021/04/27 12:27:52;;;;;;;6.03;4.70;;;19.10;38.80;;;;;;5072424;28;20204;-66
2021/04/27 12:30:22;;;;;;;8.57;5.30;;;19.10;37.70;;;;;;5072686;28;20209;-64
2021/04/27 12:32:59;;;;;;;6.68;4.53;;;19.30;37.90;;;;;;5072824;28;20243;-64
2021/04/27 12:35:27;;;;;;;7.05;5.10;;;19.30;37.60;;;;;;5072349;28;20213;-65
2021/04/27 12:38:08;;;;;;;9.43;5.43;;;19.40;36.90;;;;;;5072044;28;20240;-67
2021/04/27 12:40:38;;;;;;;7.32;5.50;;;19.40;37.60;;;;;;5072083;28;20232;-65
2021/04/27 12:43:08;;;;;;;8.10;5.40;;;19.50;37.70;;;;;;5071858;28;20258;-64
2021/04/27 12:45:48;;;;;;;8.73;5.47;;;19.70;37.10;;;;;;5071996;28;20204;-65
2021/04/27 12:48:17;;;;;;;7.53;5.57;;;19.80;37.20;;;;;;5072315;28;20204;-65
2021/04/27 12:50:49;;;;;;;14.07;5.07;;;19.90;37.60;;;;;;5072558;28;20266;-66
2021/04/27 12:53:17;;;;;;;8.23;5.13;;;19.90;37.70;;;;;;5072442;28;20212;-65
2021/04/27 12:55:52;;;;;;;7.88;5.07;;;19.80;37.90;;;;;;5071570;28;20224;-64
2021/04/27 12:58:23;;;;;;;6.75;5.15;;;20.00;37.00;;;;;;5072391;28;20204;-65
2021/04/27 13:00:51;;;;;;;8.32;5.60;;;19.90;36.50;;;;;;5072217;28;20287;-65